KELM/ELM METAR and TAF weather

Enter ICAO airport designator
Station Type Date Time Source
KELM METAR 2021/05/10 01:53 UTC NOAA

KELM 100153Z 02003KT 10SM -RA OVC022 04/ A2986 RMK AO2 SLP115 P0004 T0044 $


Station Type Date Time Source
KELM Decoded METAR 2021/05/10 01:53 UTC NOAA

ELMIRA COUNTY AIRPORT, NY, United States (KELM) 42-10N 76-54W 302M
May 09, 2021 - 09:53 PM EDT / 2021.05.10 0153 UTC
Wind: from the NNE (020 degrees) at 3 MPH (3 KT):0
Visibility: 10 mile(s):0
Sky conditions: overcast
Weather: light rain
Precipitation last hour: 0.04 inches
Temperature: 39 F (4 C)
Pressure (altimeter): 29.86 in. Hg (1011 hPa)
ob: KELM 100153Z 02003KT 10SM -RA OVC022 04/ A2986 RMK AO2 SLP115 P0004 T0044
cycle: 2

Station Type Date Time Source
KELM TAF 2021/05/10 02:12 UTC NOAA

TAF
AMD KELM 100209Z 1002/1024 VRB04KT 6SM -RA SCT015 OVC025
TEMPO 1002/1005 2SM -RA BR OVC007
FM100500 VRB03KT 3SM BR OVC007
FM101200 29007KT P6SM SCT007 BKN015
FM101500 31010KT P6SM SCT015 BKN035

Example: see airport list